Map

Track Data

SID SEASON NUMBER BASIN SUBBASIN NAME ISO_TIME NATURE LAT LON WMO_WIND WMO_PRES WMO_AGENCY TRACK_TYPE DIST2LAND LANDFALL IFLAG USA_AGENCY USA_ATCF_ID USA_LAT USA_LON USA_RECORD USA_STATUS USA_WIND USA_PRES USA_SSHS USA_R34_NE USA_R34_SE USA_R34_SW USA_R34_NW USA_R50_NE USA_R50_SE USA_R50_SW USA_R50_NW USA_R64_NE USA_R64_SE USA_R64_SW USA_R64_NW USA_POCI USA_ROCI USA_RMW USA_EYE TOKYO_LAT TOKYO_LON TOKYO_GRADE TOKYO_WIND TOKYO_PRES TOKYO_R50_DIR TOKYO_R50_LONG TOKYO_R50_SHORT TOKYO_R30_DIR TOKYO_R30_LONG TOKYO_R30_SHORT TOKYO_LAND CMA_LAT CMA_LON CMA_CAT CMA_WIND CMA_PRES HKO_LAT HKO_LON HKO_CAT HKO_WIND HKO_PRES NEWDELHI_LAT NEWDELHI_LON NEWDELHI_GRADE NEWDELHI_WIND NEWDELHI_PRES NEWDELHI_CI NEWDELHI_DP NEWDELHI_POCI REUNION_LAT REUNION_LON REUNION_TYPE REUNION_WIND REUNION_PRES REUNION_TNUM REUNION_CI REUNION_RMW REUNION_R34_NE REUNION_R34_SE REUNION_R34_SW REUNION_R34_NW REUNION_R50_NE REUNION_R50_SE REUNION_R50_SW REUNION_R50_NW REUNION_R64_NE REUNION_R64_SE REUNION_R64_SW REUNION_R64_NW BOM_LAT BOM_LON BOM_TYPE BOM_WIND BOM_PRES BOM_TNUM BOM_CI BOM_RMW BOM_R34_NE BOM_R34_SE BOM_R34_SW BOM_R34_NW BOM_R50_NE BOM_R50_SE BOM_R50_SW BOM_R50_NW BOM_R64_NE BOM_R64_SE BOM_R64_SW BOM_R64_NW BOM_ROCI BOM_POCI BOM_EYE BOM_POS_METHOD BOM_PRES_METHOD NADI_LAT NADI_LON NADI_CAT NADI_WIND NADI_PRES WELLINGTON_LAT WELLINGTON_LON WELLINGTON_WIND WELLINGTON_PRES DS824_LAT DS824_LON DS824_STAGE DS824_WIND DS824_PRES TD9636_LAT TD9636_LON TD9636_STAGE TD9636_WIND TD9636_PRES TD9635_LAT TD9635_LON TD9635_WIND TD9635_PRES TD9635_ROCI NEUMANN_LAT NEUMANN_LON NEUMANN_CLASS NEUMANN_WIND NEUMANN_PRES MLC_LAT MLC_LON MLC_CLASS MLC_WIND MLC_PRES USA_GUST BOM_GUST BOM_GUST_PER REUNION_GUST REUNION_GUST_PER USA_SEAHGT USA_SEARAD_NE USA_SEARAD_SE USA_SEARAD_SW USA_SEARAD_NW STORM_SPEED STORM_DIR
1951138N11256 1951 29 EP MM NOT_NAMED 1951-05-17 12:00:00 TS 11.0000 -104.400 45 hurdat_epa main 789 769 O________OO___ hurdat_epa EP011951 11.0000 -104.400 TS 45 0 11.0000 -104.400 TC 45 11.0000 -104.400 2 5 10
1951138N11256 1951 29 EP MM NOT_NAMED 1951-05-17 15:00:00 TS 11.2437 -104.352 main 769 735 P________PP___ EP011951 11.2425 -104.360 TS 45 0 11.2425 -104.360 TC 45 11.2485 -104.322 2 5 13
1951138N11256 1951 29 EP MM NOT_NAMED 1951-05-17 18:00:00 TS 11.5015 -104.289 45 hurdat_epa main 735 700 O________OP___ hurdat_epa EP011951 11.5000 -104.300 TS 45 0 11.5000 -104.300 TC 45 11.5075 -104.245 2 6 15
1951138N11256 1951 29 EP MM NOT_NAMED 1951-05-17 21:00:00 TS 11.7856 -104.200 main 700 665 P________PP___ EP011951 11.7850 -104.208 TS 45 0 11.7850 -104.208 TC 45 11.7878 -104.171 2 6 17
1951138N11256 1951 29 EP MM NOT_NAMED 1951-05-18 00:00:00 TS 12.1000 -104.100 45 hurdat_epa main 665 630 O________OO___ hurdat_epa EP011951 12.1000 -104.100 TS 45 0 12.1000 -104.100 TC 45 12.1000 -104.100 2 7 17
1951138N11256 1951 29 EP MM NOT_NAMED 1951-05-18 03:00:00 TS 12.4381 -104.001 main 630 586 P________PP___ EP011951 12.4350 -103.993 TS 45 0 12.4350 -103.993 TC 45 12.4503 -104.033 2 7 14
1951138N11256 1951 29 EP MM NOT_NAMED 1951-05-18 06:00:00 TS 12.8055 -103.913 45 hurdat_epa main 586 548 O________OP___ hurdat_epa EP011951 12.8000 -103.900 TS 45 0 12.8000 -103.900 TC 45 12.8275 -103.965 2 8 10
1951138N11256 1951 29 EP MM NOT_NAMED 1951-05-18 09:00:00 TS 13.2032 -103.858 main 548 505 P________PP___ EP011951 13.2000 -103.850 TS 45 0 13.2000 -103.850 TC 45 13.2159 -103.889 2 8 8
1951138N11256 1951 29 EP MM NOT_NAMED 1951-05-18 12:00:00 TS 13.6000 -103.800 45 hurdat_epa main 505 471 O________OO___ hurdat_epa EP011951 13.6000 -103.800 TS 45 0 13.6000 -103.800 TC 45 13.6000 -103.800 2 8 11
1951138N11256 1951 29 EP MM NOT_NAMED 1951-05-18 15:00:00 TS 13.9615 -103.708 main 461 426 P________PP___ EP011951 13.9575 -103.715 TS 45 0 13.9575 -103.715 TC 45 13.9775 -103.681 2 7 16
1951138N11256 1951 29 EP MM NOT_NAMED 1951-05-18 18:00:00 TS 14.3090 -103.590 45 hurdat_epa main 426 380 O________OP___ hurdat_epa EP011951 14.3000 -103.600 TS 45 0 14.3000 -103.600 TC 45 14.3450 -103.550 2 8 20
1951138N11256 1951 29 EP MM NOT_NAMED 1951-05-18 21:00:00 TS 14.6700 -103.444 main 376 341 P________PP___ EP011951 14.6650 -103.450 TS 45 0 14.6650 -103.450 TC 45 14.6900 -103.419 2 8 22
1951138N11256 1951 29 EP MM NOT_NAMED 1951-05-19 00:00:00 TS 15.0000 -103.300 45 hurdat_epa main 341 306 O________OO___ hurdat_epa EP011951 15.0000 -103.300 TS 45 0 15.0000 -103.300 TC 45 15.0000 -103.300 2 7 22
1951138N11256 1951 29 EP MM NOT_NAMED 1951-05-19 03:00:00 TS 15.2694 -103.189 main 306 281 P________PP___ EP011951 15.2725 -103.185 TS 45 0 15.2725 -103.185 TC 45 15.2568 -103.206 2 5 21
1951138N11256 1951 29 EP MM NOT_NAMED 1951-05-19 06:00:00 TS 15.4960 -103.105 45 hurdat_epa main 281 257 O________OP___ hurdat_epa EP011951 15.5000 -103.100 TS 45 0 15.5000 -103.100 TC 45 15.4799 -103.127 2 5 18
1951138N11256 1951 29 EP MM NOT_NAMED 1951-05-19 09:00:00 TS 15.6976 -103.046 main 257 235 P________PP___ EP011951 15.7000 -103.042 TS 45 0 15.7000 -103.042 TC 45 15.6881 -103.060 2 4 14
1951138N11256 1951 29 EP MM NOT_NAMED 1951-05-19 12:00:00 TS 15.9000 -103.000 45 hurdat_epa main 235 214 O________OO___ hurdat_epa EP011951 15.9000 -103.000 TS 45 0 15.9000 -103.000 TC 45 15.9000 -103.000 2 5 11
1951138N11256 1951 29 EP MM NOT_NAMED 1951-05-19 15:00:00 TS 16.1434 -102.950 main 214 179 P________PP___ EP011951 16.1425 -102.950 TS 45 0 16.1425 -102.950 TC 45 16.1468 -102.951 2 5 11
1951138N11256 1951 29 EP MM NOT_NAMED 1951-05-19 18:00:00 TS 16.4000 -102.901 45 hurdat_epa main 179 158 O________OP___ hurdat_epa EP011951 16.4000 -102.900 TS 45 0 16.4000 -102.900 TC 45 16.4000 -102.907 2 5 10
1951138N11256 1951 29 EP MM NOT_NAMED 1951-05-19 21:00:00 TS 16.6506 -102.858 main 148 123 P________PP___ EP011951 16.6500 -102.857 TS 45 0 16.6500 -102.857 TC 45 16.6531 -102.860 2 5 11
1951138N11256 1951 29 EP MM NOT_NAMED 1951-05-20 00:00:00 TS 16.9000 -102.800 45 hurdat_epa main 123 99 O________OO___ hurdat_epa EP011951 16.9000 -102.800 TS 45 0 16.9000 -102.800 TC 45 16.9000 -102.800 2 5 16
1951138N11256 1951 29 EP MM NOT_NAMED 1951-05-20 03:00:00 TS 17.1532 -102.710 main 89 64 P________PP___ EP011951 17.1575 -102.708 TS 45 0 17.1575 -102.708 TC 45 17.1360 -102.720 2 5 21
1951138N11256 1951 29 EP MM NOT_NAMED 1951-05-20 06:00:00 TS 17.3941 -102.604 45 hurdat_epa main 64 39 O________OP___ hurdat_epa EP011951 17.4000 -102.600 TS 45 0 17.4000 -102.600 TC 45 17.3626 -102.623 2 5 22
1951138N11256 1951 29 EP MM NOT_NAMED 1951-05-20 09:00:00 TS 17.6114 -102.515 main 39 15 P________PP___ EP011951 17.6150 -102.515 TS 45 0 17.6150 -102.515 TC 45 17.5829 -102.514 2 5 25
1951138N11256 1951 29 EP MM NOT_NAMED 1951-05-20 12:00:00 TS 17.8000 -102.400 45 hurdat_epa main 15 0 O________OO___ hurdat_epa EP011951 17.8000 -102.400 TS 45 0 17.8000 -102.400 TC 45 17.8000 -102.400 2 4 38
1951138N11256 1951 29 EP MM NOT_NAMED 1951-05-20 15:00:00 TS 17.9650 -102.230 main 0 0 P________P____ EP011951 17.9650 -102.230 TS 45 0 17.9650 -102.230 TC 45 2 5 52
1951138N11256 1951 29 EP MM NOT_NAMED 1951-05-20 18:00:00 TS 18.1000 -102.000 45 hurdat_epa main 0 0 O________O____ hurdat_epa EP011951 18.1000 -102.000 TS 45 0 18.1000 -102.000 TC 45 2 5 64
1951138N11256 1951 29 EP MM NOT_NAMED 1951-05-20 21:00:00 TS 18.2076 -101.715 main 0 0 P________P____ EP011951 18.2076 -101.715 TS 45 0 18.2076 -101.715 TC 45 2 6 71
1951138N11256 1951 29 EP MM NOT_NAMED 1951-05-21 00:00:00 TS 18.3000 -101.400 45 hurdat_epa main 0 O________O____ hurdat_epa EP011951 18.3000 -101.400 TS 45 0 18.3000 -101.400 TC 45 6 73

About IBTrACS Database

This database is a web-friendly format of International Best Track Archive for Climate Stewardship (IBTrACS), a global best track data archive curated by NOAA dating back to 1842.

Updated: 2021-11-26